createdAt,value
2023-02-15T00:01:20.218Z,82.67
2023-02-15T00:03:51.056Z,104.37
2023-02-15T00:06:20.936Z,86.87
2023-02-15T00:08:49.341Z,56.27
2023-02-15T00:11:39.526Z,52.03
2023-02-15T00:14:09.802Z,46.77
2023-02-15T00:16:38.574Z,52.43
2023-02-15T00:19:07.357Z,43.77
2023-02-15T00:21:38.776Z,182.43
2023-02-15T00:24:08.912Z,369.37
2023-02-15T00:26:38.026Z,313.67
2023-02-15T00:29:06.723Z,310.47
2023-02-15T00:31:35.956Z,124.73
2023-02-15T00:34:05.024Z,96.03
2023-02-15T00:36:33.445Z,89.63
2023-02-15T00:39:03.333Z,81.93
2023-02-15T00:41:31.705Z,77.30
2023-02-15T00:44:00.107Z,71.07
2023-02-15T00:46:28.616Z,65.20
2023-02-15T00:48:57.082Z,63.23
2023-02-15T00:51:25.688Z,63.73
2023-02-15T00:53:54.245Z,57.63
2023-02-15T00:56:24.378Z,61.73
2023-02-15T00:58:52.780Z,62.43
2023-02-15T01:01:23.179Z,60.30
2023-02-15T01:03:51.960Z,57.17
2023-02-15T01:06:20.973Z,58.23
2023-02-15T01:08:50.025Z,50.63
2023-02-15T01:11:50.260Z,54.40
2023-02-15T01:14:12.820Z,56.50
2023-02-15T01:16:41.561Z,58.10
2023-02-15T01:19:10.207Z,55.27
2023-02-15T01:21:38.694Z,55.93
2023-02-15T01:24:07.417Z,64.40
2023-02-15T01:26:35.834Z,56.93
2023-02-15T01:29:04.188Z,54.07
2023-02-15T01:31:34.363Z,55.83
2023-02-15T01:34:02.878Z,60.50
2023-02-15T01:36:31.803Z,63.53
2023-02-15T01:39:00.136Z,61.83
2023-02-15T01:41:28.914Z,56.00
2023-02-15T01:43:59.706Z,58.33
2023-02-15T01:46:33.959Z,59.70
2023-02-15T01:49:09.695Z,68.93
2023-02-15T01:51:40.661Z,85.33
2023-02-15T01:54:13.983Z,75.17
2023-02-15T01:56:43.481Z,57.47
2023-02-15T01:59:16.043Z,57.50
2023-02-15T02:01:44.535Z,51.43
2023-02-15T02:04:20.516Z,56.83
2023-02-15T02:06:51.668Z,55.20
2023-02-15T02:09:20.045Z,63.50
2023-02-15T02:11:50.002Z,67.53
2023-02-15T02:14:19.324Z,74.03
2023-02-15T02:16:56.294Z,63.00
2023-02-15T02:19:59.611Z,59.03
2023-02-15T02:23:12.498Z,60.97
2023-02-15T02:26:09.056Z,60.23
2023-02-15T02:29:15.027Z,54.37
2023-02-15T02:32:26.063Z,61.20
2023-02-15T02:35:13.973Z,60.70
2023-02-15T02:37:51.336Z,71.43
2023-02-15T02:40:27.617Z,70.90
2023-02-15T02:43:02.686Z,178.90
2023-02-15T02:45:37.553Z,219.67
2023-02-15T02:48:10.462Z,107.23
2023-02-15T02:50:42.465Z,169.83
2023-02-15T02:53:12.588Z,126.60
2023-02-15T02:55:45.550Z,86.33
2023-02-15T02:58:19.757Z,75.83
2023-02-15T03:00:51.815Z,72.67
2023-02-15T03:03:25.919Z,95.73
2023-02-15T03:05:58.155Z,75.70
2023-02-15T03:08:30.712Z,68.10
2023-02-15T03:11:02.703Z,68.83
2023-02-15T03:13:31.383Z,59.07
2023-02-15T03:16:19.953Z,57.53
2023-02-15T03:18:53.951Z,52.20
2023-02-15T03:21:26.496Z,54.10
2023-02-15T03:24:00.323Z,51.90
2023-02-15T03:26:31.630Z,51.53
2023-02-15T03:29:02.806Z,50.80
2023-02-15T03:31:34.596Z,54.07
2023-02-15T03:34:06.097Z,49.73
2023-02-15T03:36:44.324Z,52.57
2023-02-15T03:39:20.651Z,57.97
2023-02-15T03:41:58.340Z,47.33
2023-02-15T03:44:30.690Z,45.63
2023-02-15T03:47:06.834Z,44.43
2023-02-15T03:49:44.613Z,40.97
2023-02-15T03:52:17.291Z,39.13
2023-02-15T03:54:47.306Z,42.13
2023-02-15T03:57:39.796Z,39.37
2023-02-15T04:00:32.004Z,37.83
2023-02-15T04:03:15.131Z,46.97
2023-02-15T04:05:45.001Z,38.90
2023-02-15T04:08:15.440Z,33.97
2023-02-15T04:10:54.644Z,34.10
2023-02-15T04:13:24.382Z,36.30
2023-02-15T04:16:08.173Z,35.00
2023-02-15T04:18:56.087Z,34.47
2023-02-15T04:21:43.711Z,47.60
2023-02-15T04:24:31.521Z,50.50
2023-02-15T04:27:00.337Z,60.57
2023-02-15T04:29:29.794Z,55.37
2023-02-15T04:32:00.255Z,42.77
2023-02-15T04:34:28.848Z,35.93
2023-02-15T04:36:57.514Z,33.77
2023-02-15T04:39:27.326Z,33.93
2023-02-15T04:41:55.672Z,32.47
2023-02-15T04:44:24.091Z,38.00
2023-02-15T04:46:52.534Z,36.70
2023-02-15T04:49:20.932Z,38.83
2023-02-15T04:51:49.350Z,36.17
2023-02-15T04:54:17.707Z,38.80
2023-02-15T04:56:47.585Z,38.13
2023-02-15T04:59:16.173Z,39.37
2023-02-15T05:01:44.576Z,37.43
2023-02-15T05:04:13.393Z,35.93
2023-02-15T05:06:41.843Z,38.13
2023-02-15T05:09:10.251Z,38.57
2023-02-15T05:11:38.699Z,35.43
2023-02-15T05:14:08.699Z,36.93
2023-02-15T05:16:37.268Z,39.13
2023-02-15T05:19:05.967Z,35.90
2023-02-15T05:21:34.653Z,40.33
2023-02-15T05:24:23.031Z,40.30
2023-02-15T05:27:08.699Z,44.83
2023-02-15T05:29:38.590Z,36.17
2023-02-15T05:32:07.651Z,40.17
2023-02-15T05:34:36.102Z,42.90
2023-02-15T05:37:04.676Z,49.53
2023-02-15T05:39:33.019Z,57.37
2023-02-15T05:42:01.700Z,60.40
2023-02-15T05:44:30.075Z,46.70
2023-02-15T05:46:59.844Z,42.67
2023-02-15T05:49:28.220Z,45.10
2023-02-15T05:51:56.622Z,39.70
2023-02-15T05:54:25.042Z,45.13
2023-02-15T05:56:53.757Z,36.47
2023-02-15T05:59:22.177Z,37.73
2023-02-15T06:01:50.914Z,37.53
2023-02-15T06:04:20.774Z,37.87
2023-02-15T06:06:49.352Z,37.20
2023-02-15T06:09:19.641Z,35.20
2023-02-15T06:11:48.056Z,36.30
2023-02-15T06:14:16.469Z,37.93
2023-02-15T06:16:44.854Z,38.73
2023-02-15T06:19:13.245Z,36.37
2023-02-15T06:21:43.134Z,38.90
2023-02-15T06:24:11.782Z,38.53
2023-02-15T06:26:40.170Z,36.77
2023-02-15T06:29:09.241Z,41.70
2023-02-15T06:31:38.003Z,40.27
2023-02-15T06:34:07.086Z,39.37
2023-02-15T06:36:35.545Z,39.20
2023-02-15T06:39:05.558Z,38.93
2023-02-15T06:41:33.958Z,40.97
2023-02-15T06:44:02.462Z,35.37
2023-02-15T06:46:31.036Z,42.53
2023-02-15T06:48:59.470Z,41.83
2023-02-15T06:51:27.952Z,45.60
2023-02-15T06:53:56.336Z,47.10
2023-02-15T06:56:26.169Z,45.13
2023-02-15T06:58:54.657Z,47.53
2023-02-15T07:01:23.185Z,54.87
2023-02-15T07:03:52.112Z,52.10
2023-02-15T07:06:20.477Z,60.50
2023-02-15T07:08:48.888Z,57.13
2023-02-15T07:11:34.564Z,53.87
2023-02-15T07:14:04.365Z,57.03
2023-02-15T07:16:32.762Z,50.50
2023-02-15T07:19:01.185Z,59.77
2023-02-15T07:21:29.587Z,66.50
2023-02-15T07:23:59.695Z,98.67
2023-02-15T07:26:28.325Z,94.03
2023-02-15T07:28:56.770Z,63.00
2023-02-15T07:31:26.651Z,49.90
2023-02-15T07:33:55.118Z,48.30
2023-02-15T07:36:23.480Z,45.73
2023-02-15T07:38:51.916Z,52.27
2023-02-15T07:41:20.559Z,56.23
2023-02-15T07:43:49.009Z,57.20
2023-02-15T07:46:19.162Z,53.13
2023-02-15T07:48:49.541Z,48.07
2023-02-15T07:51:18.266Z,48.30
2023-02-15T07:53:46.939Z,46.30
2023-02-15T07:56:16.837Z,45.93
2023-02-15T07:58:54.301Z,42.47
2023-02-15T08:01:25.575Z,47.77
2023-02-15T08:03:55.907Z,39.00
2023-02-15T08:06:25.794Z,45.10
2023-02-15T08:08:54.289Z,45.00
2023-02-15T08:11:37.696Z,43.20
2023-02-15T08:14:07.948Z,40.57
2023-02-15T08:16:38.297Z,44.77
2023-02-15T08:19:11.434Z,40.57
2023-02-15T08:21:41.582Z,40.13
2023-02-15T08:24:11.293Z,41.20
2023-02-15T08:26:42.365Z,46.20
2023-02-15T08:29:12.499Z,43.40
2023-02-15T08:31:42.824Z,45.70
2023-02-15T08:34:13.943Z,45.10
2023-02-15T08:36:43.659Z,43.70
2023-02-15T08:39:12.137Z,36.97
2023-02-15T08:41:41.984Z,43.83
2023-02-15T08:44:11.881Z,41.83
2023-02-15T08:46:42.729Z,40.07
2023-02-15T08:49:14.843Z,38.50
2023-02-15T08:51:43.819Z,36.63
2023-02-15T08:54:16.031Z,45.40
2023-02-15T08:56:45.906Z,37.97
2023-02-15T08:59:17.475Z,35.07
2023-02-15T09:01:47.574Z,32.77
2023-02-15T09:04:18.212Z,29.47
2023-02-15T09:06:49.536Z,30.57
2023-02-15T09:09:18.765Z,32.23
2023-02-15T09:11:49.102Z,30.90
2023-02-15T09:14:19.430Z,32.67
2023-02-15T09:16:51.064Z,29.47
2023-02-15T09:19:23.038Z,36.30
2023-02-15T09:21:51.466Z,40.47
2023-02-15T09:24:20.278Z,34.47
2023-02-15T09:26:51.025Z,32.97
2023-02-15T09:29:20.326Z,38.43
2023-02-15T09:31:51.182Z,34.70
2023-02-15T09:34:23.188Z,38.43
2023-02-15T09:36:52.179Z,36.30
2023-02-15T09:39:24.801Z,39.57
2023-02-15T09:42:14.294Z,36.30
2023-02-15T09:45:00.496Z,33.87
2023-02-15T09:47:58.277Z,35.73
2023-02-15T09:50:35.696Z,36.57
2023-02-15T09:53:29.346Z,32.90
2023-02-15T09:56:04.903Z,32.00
2023-02-15T09:58:46.885Z,32.40
2023-02-15T10:01:27.453Z,35.97
2023-02-15T10:04:12.484Z,33.27
2023-02-15T10:06:48.330Z,32.50
2023-02-15T10:09:41.485Z,34.07
2023-02-15T10:12:36.898Z,33.20
2023-02-15T10:15:26.477Z,33.00
2023-02-15T10:18:17.348Z,33.43
2023-02-15T10:20:58.842Z,34.20
2023-02-15T10:23:49.818Z,34.67
2023-02-15T10:26:21.146Z,36.47
2023-02-15T10:28:52.445Z,25.93
2023-02-15T10:31:27.132Z,32.37
2023-02-15T10:34:11.111Z,34.30
2023-02-15T10:37:07.277Z,35.07
2023-02-15T10:39:49.078Z,35.53
2023-02-15T10:42:29.186Z,34.57
2023-02-15T10:45:12.394Z,39.00
2023-02-15T10:47:54.899Z,32.20
2023-02-15T10:50:32.273Z,34.07
2023-02-15T10:53:16.541Z,37.87
2023-02-15T10:55:58.078Z,36.10
2023-02-15T10:58:37.624Z,37.67
2023-02-15T11:01:16.153Z,39.83
2023-02-15T11:03:58.948Z,37.33
2023-02-15T11:06:29.726Z,36.50
2023-02-15T11:09:04.419Z,37.40
2023-02-15T11:11:37.298Z,39.67
2023-02-15T11:14:13.778Z,37.17
2023-02-15T11:16:46.847Z,38.10
2023-02-15T11:19:23.108Z,42.03
2023-02-15T11:21:57.336Z,37.67
2023-02-15T11:24:30.515Z,38.27
2023-02-15T11:27:04.928Z,40.80
2023-02-15T11:29:37.125Z,36.03
2023-02-15T11:32:16.810Z,36.73
2023-02-15T11:34:52.932Z,39.77
2023-02-15T11:37:35.051Z,42.90
2023-02-15T11:40:05.247Z,41.97
2023-02-15T11:42:37.244Z,41.13
2023-02-15T11:45:19.618Z,35.87
2023-02-15T11:47:47.992Z,34.47
2023-02-15T11:50:19.493Z,33.37
2023-02-15T11:52:47.853Z,35.40
2023-02-15T11:55:22.466Z,36.90
2023-02-15T11:57:57.571Z,32.50
2023-02-15T12:00:37.201Z,33.17
2023-02-15T12:03:14.353Z,35.03
2023-02-15T12:05:46.863Z,34.07
2023-02-15T12:08:19.563Z,33.93
2023-02-15T12:11:00.714Z,32.90
2023-02-15T12:13:31.333Z,30.83
2023-02-15T12:16:09.294Z,34.13
2023-02-15T12:18:42.064Z,32.90
2023-02-15T12:21:13.042Z,30.97
2023-02-15T12:23:49.587Z,28.57
2023-02-15T12:26:27.304Z,32.10
2023-02-15T12:29:02.788Z,31.70
2023-02-15T12:31:38.842Z,31.40
2023-02-15T12:34:15.555Z,30.63
2023-02-15T12:36:48.101Z,31.43
2023-02-15T12:39:23.490Z,30.23
2023-02-15T12:42:05.050Z,30.83
2023-02-15T12:44:36.987Z,40.30
2023-02-15T12:47:07.283Z,33.23
2023-02-15T12:49:36.972Z,30.77
2023-02-15T12:52:07.933Z,40.70
2023-02-15T12:54:41.533Z,33.97
2023-02-15T12:57:24.282Z,29.57
2023-02-15T12:59:56.505Z,36.87
2023-02-15T13:02:30.855Z,30.37
2023-02-15T13:05:06.976Z,30.57
2023-02-15T13:07:35.777Z,30.73
2023-02-15T13:10:04.311Z,29.50
2023-02-15T13:12:34.829Z,28.83
2023-02-15T13:15:06.169Z,28.53
2023-02-15T13:17:35.907Z,27.60
2023-02-15T13:20:10.987Z,30.33
2023-02-15T13:22:44.235Z,28.00
2023-02-15T13:25:17.172Z,29.83
2023-02-15T13:27:48.646Z,27.87
2023-02-15T13:30:27.441Z,26.27
2023-02-15T13:33:00.337Z,25.00
2023-02-15T13:35:36.745Z,25.27
2023-02-15T13:38:35.114Z,24.60
2023-02-15T13:41:09.491Z,23.70
2023-02-15T13:43:48.490Z,31.43
2023-02-15T13:46:31.113Z,25.23
2023-02-15T13:49:14.758Z,21.97
2023-02-15T13:51:48.279Z,26.93
2023-02-15T13:54:35.740Z,25.23
2023-02-15T13:57:23.444Z,24.40
2023-02-15T14:00:05.611Z,28.10
2023-02-15T14:03:10.931Z,24.13
2023-02-15T14:05:54.239Z,25.73
2023-02-15T14:08:35.373Z,25.60
2023-02-15T14:11:13.167Z,25.03
2023-02-15T14:14:01.084Z,23.60
2023-02-15T14:16:38.827Z,21.97
2023-02-15T14:19:18.915Z,27.87
2023-02-15T14:21:54.857Z,24.90
2023-02-15T14:24:32.590Z,23.70
2023-02-15T14:27:09.930Z,22.83
2023-02-15T14:29:51.769Z,24.30
2023-02-15T14:32:27.864Z,31.33
2023-02-15T14:35:00.395Z,24.87
2023-02-15T14:37:39.502Z,23.57
2023-02-15T14:40:41.444Z,31.73
2023-02-15T14:43:14.577Z,25.00
2023-02-15T14:45:58.687Z,25.87
2023-02-15T14:48:33.395Z,23.53
2023-02-15T14:51:03.953Z,25.47
2023-02-15T14:53:43.338Z,20.80
2023-02-15T14:56:27.649Z,32.80
2023-02-15T14:59:16.479Z,28.57
2023-02-15T15:01:55.320Z,33.73
2023-02-15T15:04:32.701Z,27.53
2023-02-15T15:07:08.080Z,26.73
2023-02-15T15:09:39.542Z,43.20
2023-02-15T15:12:33.523Z,41.07
2023-02-15T15:15:02.463Z,41.53
2023-02-15T15:18:02.315Z,38.20
2023-02-15T15:20:51.487Z,35.20
2023-02-15T15:23:51.711Z,45.73
2023-02-15T15:26:34.446Z,41.13
2023-02-15T15:29:03.890Z,39.63
2023-02-15T15:31:53.834Z,41.00
2023-02-15T15:34:40.756Z,52.40
2023-02-15T15:37:48.710Z,48.10
2023-02-15T15:40:43.007Z,43.47
2023-02-15T15:43:35.132Z,45.20
2023-02-15T15:46:40.705Z,42.73
2023-02-15T15:49:13.110Z,37.70
2023-02-15T15:51:43.266Z,41.47
2023-02-15T15:54:18.103Z,37.87
2023-02-15T15:56:51.558Z,44.47
2023-02-15T15:59:24.769Z,51.30
2023-02-15T16:01:53.447Z,44.93
2023-02-15T16:04:27.982Z,44.67
2023-02-15T16:06:56.459Z,53.27
2023-02-15T16:09:27.338Z,53.07
2023-02-15T16:12:01.614Z,57.93
2023-02-15T16:14:33.356Z,59.70
2023-02-15T16:17:04.305Z,62.90
2023-02-15T16:19:37.312Z,59.40
2023-02-15T16:22:08.750Z,55.33
2023-02-15T16:24:48.149Z,51.07
2023-02-15T16:27:40.832Z,51.07
2023-02-15T16:30:33.615Z,48.77
2023-02-15T16:33:11.066Z,51.33
2023-02-15T16:35:41.376Z,51.80
2023-02-15T16:38:12.659Z,61.27
2023-02-15T16:40:48.647Z,69.37
2023-02-15T16:43:23.530Z,56.33
2023-02-15T16:45:53.002Z,56.57
2023-02-15T16:48:26.323Z,61.57
2023-02-15T16:50:58.183Z,51.57
2023-02-15T16:53:28.795Z,49.97
2023-02-15T16:55:59.635Z,46.70
2023-02-15T16:58:40.444Z,91.80
2023-02-15T17:01:11.266Z,72.07
2023-02-15T17:03:41.692Z,94.80
2023-02-15T17:06:22.841Z,95.47
2023-02-15T17:08:51.429Z,94.20
2023-02-15T17:11:21.384Z,85.30
2023-02-15T17:14:16.444Z,91.17
2023-02-15T17:16:50.338Z,109.83
2023-02-15T17:19:23.876Z,104.67
2023-02-15T17:21:55.660Z,114.03
2023-02-15T17:24:34.545Z,97.33
2023-02-15T17:27:06.417Z,104.63
2023-02-15T17:29:39.470Z,106.37
2023-02-15T17:32:15.517Z,103.37
2023-02-15T17:34:59.554Z,106.87
2023-02-15T17:37:31.190Z,108.80
2023-02-15T17:40:01.856Z,112.53
2023-02-15T17:42:30.407Z,162.20
2023-02-15T17:45:00.302Z,203.53
2023-02-15T17:47:30.279Z,168.53
2023-02-15T17:49:58.717Z,165.57
2023-02-15T17:52:30.983Z,148.60
2023-02-15T17:55:17.078Z,170.73
2023-02-15T17:57:45.479Z,176.43
2023-02-15T18:00:35.642Z,158.43
2023-02-15T18:03:21.398Z,142.33
2023-02-15T18:06:07.315Z,138.47
2023-02-15T18:08:53.381Z,139.37
2023-02-15T18:11:39.693Z,148.20
2023-02-15T18:14:09.964Z,135.83
2023-02-15T18:16:43.514Z,128.93
2023-02-15T18:19:16.483Z,135.57
2023-02-15T18:21:45.592Z,149.40
2023-02-15T18:24:21.748Z,117.27
2023-02-15T18:26:50.268Z,95.57
2023-02-15T18:29:18.621Z,143.63
2023-02-15T18:31:53.198Z,262.50
2023-02-15T18:34:28.565Z,276.70
2023-02-15T18:36:58.859Z,257.23
2023-02-15T18:39:34.058Z,204.33
2023-02-15T18:42:02.532Z,163.57
2023-02-15T18:44:30.920Z,135.37
2023-02-15T18:47:00.716Z,101.87
2023-02-15T18:49:29.332Z,87.03
2023-02-15T18:51:57.813Z,73.67
2023-02-15T18:54:27.094Z,82.13
2023-02-15T18:56:58.152Z,72.97
2023-02-15T18:59:28.446Z,69.50
2023-02-15T19:01:57.086Z,69.70
2023-02-15T19:04:26.897Z,72.57
2023-02-15T19:06:56.243Z,73.60
2023-02-15T19:09:26.442Z,72.33
2023-02-15T19:11:56.653Z,66.90
2023-02-15T19:14:27.896Z,59.80
2023-02-15T19:16:56.792Z,56.40
2023-02-15T19:19:27.549Z,56.33
2023-02-15T19:21:56.572Z,54.80
2023-02-15T19:24:30.784Z,51.73
2023-02-15T19:26:59.212Z,55.93
2023-02-15T19:29:31.052Z,49.83
2023-02-15T19:31:59.625Z,57.90
2023-02-15T19:34:30.284Z,53.13
2023-02-15T19:36:58.871Z,50.97
2023-02-15T19:39:30.112Z,50.80
2023-02-15T19:41:58.535Z,52.83
2023-02-15T19:44:26.995Z,48.37
2023-02-15T19:46:55.950Z,40.13
2023-02-15T19:49:24.668Z,316.73
2023-02-15T19:51:54.985Z,251.47
2023-02-15T19:54:31.009Z,377.93
2023-02-15T19:56:59.807Z,737.50
2023-02-15T19:59:30.037Z,563.17
2023-02-15T20:01:59.035Z,353.60
2023-02-15T20:04:28.405Z,59.50
2023-02-15T20:07:02.965Z,203.93
2023-02-15T20:09:34.071Z,314.83
2023-02-15T20:12:02.854Z,113.93
2023-02-15T20:14:31.372Z,55.30
2023-02-15T20:16:59.751Z,49.33
2023-02-15T20:19:28.226Z,115.63
2023-02-15T20:21:59.202Z,230.67
2023-02-15T20:24:30.131Z,183.00
2023-02-15T20:26:58.555Z,263.97
2023-02-15T20:29:27.035Z,244.40
2023-02-15T20:32:01.239Z,321.90
2023-02-15T20:34:29.726Z,100.97
2023-02-15T20:36:59.544Z,51.33
2023-02-15T20:39:28.515Z,50.63
2023-02-15T20:41:56.979Z,46.23
2023-02-15T20:44:27.709Z,48.37
2023-02-15T20:46:58.776Z,50.00
2023-02-15T20:49:29.167Z,49.93
2023-02-15T20:51:59.181Z,50.87
2023-02-15T20:54:30.409Z,57.00
2023-02-15T20:56:59.403Z,51.47
2023-02-15T20:59:30.701Z,47.23
2023-02-15T21:02:02.476Z,54.13
2023-02-15T21:04:32.905Z,53.47
2023-02-15T21:07:02.768Z,50.07
2023-02-15T21:09:31.356Z,52.03
2023-02-15T21:12:02.811Z,53.57
2023-02-15T21:14:31.341Z,49.53
2023-02-15T21:16:59.726Z,53.80
2023-02-15T21:19:29.004Z,54.20
2023-02-15T21:21:58.194Z,52.17
2023-02-15T21:24:30.421Z,49.67
2023-02-15T21:27:02.295Z,55.40
2023-02-15T21:29:31.826Z,49.93
2023-02-15T21:32:00.764Z,373.97
2023-02-15T21:34:29.228Z,888.20
2023-02-15T21:36:57.708Z,637.57
2023-02-15T21:39:31.177Z,439.83
2023-02-15T21:42:17.152Z,654.70
2023-02-15T21:45:03.161Z,92.17
2023-02-15T21:47:50.002Z,56.93
2023-02-15T21:50:37.760Z,52.37
2023-02-15T21:53:08.072Z,61.97
2023-02-15T21:55:38.068Z,249.07
2023-02-15T21:58:06.748Z,212.90
2023-02-15T22:00:35.388Z,145.33
2023-02-15T22:03:03.834Z,120.00
2023-02-15T22:05:34.264Z,123.50
2023-02-15T22:08:02.799Z,127.90
2023-02-15T22:10:33.409Z,125.97
2023-02-15T22:13:04.833Z,129.83
2023-02-15T22:15:37.359Z,123.67
2023-02-15T22:18:06.767Z,114.50
2023-02-15T22:20:35.148Z,130.63
2023-02-15T22:23:03.572Z,122.43
2023-02-15T22:25:32.050Z,121.83
2023-02-15T22:28:00.510Z,145.57
2023-02-15T22:30:34.263Z,150.60
2023-02-15T22:33:03.247Z,131.80
2023-02-15T22:35:33.327Z,126.53
2023-02-15T22:38:02.840Z,112.83
2023-02-15T22:40:34.099Z,96.53
2023-02-15T22:43:04.667Z,92.40
2023-02-15T22:45:36.524Z,86.80
2023-02-15T22:48:05.278Z,300.33
2023-02-15T22:50:37.026Z,208.10
2023-02-15T22:53:06.220Z,265.40
2023-02-15T22:55:38.744Z,272.87
2023-02-15T22:58:08.201Z,160.47
2023-02-15T23:00:41.217Z,137.37
2023-02-15T23:03:17.011Z,150.93
2023-02-15T23:05:45.983Z,110.27
2023-02-15T23:08:15.046Z,103.20
2023-02-15T23:10:45.817Z,112.20
2023-02-15T23:13:25.459Z,138.67
2023-02-15T23:15:58.778Z,131.63
2023-02-15T23:18:30.247Z,491.53
2023-02-15T23:21:00.880Z,668.97
2023-02-15T23:23:33.743Z,508.60
2023-02-15T23:26:04.350Z,270.37
2023-02-15T23:28:36.771Z,415.60
2023-02-15T23:31:15.730Z,155.53
2023-02-15T23:33:44.605Z,140.07
2023-02-15T23:36:27.188Z,116.07
2023-02-15T23:38:56.194Z,100.90
2023-02-15T23:41:26.369Z,100.43
2023-02-15T23:43:58.075Z,96.03
2023-02-15T23:46:38.089Z,93.20
2023-02-15T23:49:15.181Z,96.90
2023-02-15T23:51:45.381Z,101.00
2023-02-15T23:54:14.579Z,93.27
2023-02-15T23:56:44.454Z,89.03
2023-02-15T23:59:16.998Z,106.20
